createdAt,value
2024-03-20T00:07:08.412Z,67
2024-03-20T00:17:18.014Z,68
2024-03-20T00:27:27.621Z,69
2024-03-20T00:37:37.306Z,69
2024-03-20T00:47:46.939Z,69
2024-03-20T01:07:52.212Z,68
2024-03-20T01:18:03.334Z,69
2024-03-20T01:38:05.243Z,70
2024-03-20T01:48:14.771Z,70
2024-03-20T01:58:24.415Z,71
2024-03-20T02:08:33.977Z,71
2024-03-20T02:18:43.493Z,71
2024-03-20T02:28:53.236Z,71
2024-03-20T02:39:02.892Z,72
2024-03-20T02:49:12.460Z,71
2024-03-20T02:59:24.687Z,71
2024-03-20T03:09:24.461Z,71
2024-03-20T03:19:34.104Z,71
2024-03-20T03:29:43.848Z,72
2024-03-20T03:39:53.550Z,71
2024-03-20T03:50:03.223Z,72
2024-03-20T04:00:12.918Z,73
2024-03-20T04:10:22.472Z,73
2024-03-20T04:20:32.203Z,73
2024-03-20T04:30:41.893Z,73
2024-03-20T04:40:51.452Z,73
2024-03-20T04:51:01.009Z,71
2024-03-20T05:01:10.602Z,71
2024-03-20T05:11:20.165Z,72
2024-03-20T05:21:29.833Z,72
2024-03-20T05:31:39.381Z,72
2024-03-20T05:41:48.879Z,72
2024-03-20T05:51:58.414Z,73
2024-03-20T06:02:07.656Z,72
2024-03-20T06:12:17.149Z,72
2024-03-20T06:22:26.788Z,70
2024-03-20T06:32:35.845Z,69
2024-03-20T06:42:45.490Z,69
2024-03-20T06:52:57.664Z,70
2024-03-20T07:12:59.576Z,69
2024-03-20T07:22:59.696Z,67
2024-03-20T07:33:12.408Z,67
2024-03-20T07:43:12.146Z,66
2024-03-20T07:53:23.942Z,66
2024-03-20T08:03:23.626Z,64
2024-03-20T08:13:33.389Z,62
2024-03-20T08:23:34.395Z,59
2024-03-20T08:33:47.214Z,58
2024-03-20T08:43:58.309Z,56
2024-03-20T08:53:58.212Z,55
2024-03-20T09:04:07.980Z,56
2024-03-20T09:14:17.522Z,62
2024-03-20T09:24:32.119Z,61
2024-03-20T09:34:32.507Z,62
2024-03-20T09:44:36.879Z,61
2024-03-20T09:54:42.103Z,57
2024-03-20T10:04:49.467Z,57
2024-03-20T10:14:47.015Z,55
2024-03-20T10:24:49.129Z,55
2024-03-20T10:34:59.253Z,52
2024-03-20T10:45:08.044Z,52
2024-03-20T10:55:20.406Z,50
2024-03-20T11:05:23.151Z,52
2024-03-20T11:15:23.168Z,53
2024-03-20T11:25:22.847Z,51
2024-03-20T11:35:32.733Z,49
2024-03-20T11:45:33.095Z,47
2024-03-20T11:55:42.773Z,46
2024-03-20T12:05:53.208Z,47
2024-03-20T12:16:02.515Z,47
2024-03-20T12:26:12.202Z,46
2024-03-20T12:36:21.732Z,44
2024-03-20T12:46:34.925Z,46
2024-03-20T12:56:36.286Z,47
2024-03-20T13:06:45.956Z,47
2024-03-20T13:16:51.381Z,49
2024-03-20T13:26:50.942Z,47
2024-03-20T13:37:03.334Z,50
2024-03-20T13:47:05.086Z,49
2024-03-20T13:57:07.435Z,47
2024-03-20T14:07:19.022Z,48
2024-03-20T14:17:17.907Z,48
2024-03-20T14:27:24.212Z,47
2024-03-20T14:37:25.053Z,49
2024-03-20T14:47:25.103Z,50
2024-03-20T14:57:24.923Z,49
2024-03-20T15:07:36.992Z,50
2024-03-20T15:17:36.753Z,51
2024-03-20T15:27:36.608Z,51
2024-03-20T15:37:46.904Z,50
2024-03-20T15:47:48.489Z,52
2024-03-20T15:57:58.170Z,53
2024-03-20T16:08:07.775Z,54
2024-03-20T16:18:17.426Z,56
2024-03-20T16:28:27.203Z,56
2024-03-20T16:38:36.855Z,58
2024-03-20T16:48:46.520Z,59
2024-03-20T16:58:56.145Z,59
2024-03-20T17:09:05.754Z,60
2024-03-20T17:19:15.476Z,60
2024-03-20T17:29:15.420Z,61
2024-03-20T17:39:25.041Z,62
2024-03-20T17:49:34.770Z,63
2024-03-20T17:59:35.620Z,65
2024-03-20T18:09:47.075Z,64
2024-03-20T18:19:49.156Z,67
2024-03-20T18:29:49.668Z,67
2024-03-20T18:39:51.538Z,68
2024-03-20T18:49:53.503Z,70
2024-03-20T19:00:04.359Z,70
2024-03-20T19:10:13.041Z,70
2024-03-20T19:20:14.784Z,71
2024-03-20T19:30:15.881Z,71
2024-03-20T19:40:20.711Z,71
2024-03-20T19:50:31.740Z,73
2024-03-20T20:00:37.110Z,74
2024-03-20T20:10:38.469Z,74
2024-03-20T20:20:35.747Z,75
2024-03-20T20:30:38.886Z,75
2024-03-20T20:40:40.247Z,74
2024-03-20T20:50:43.664Z,74
2024-03-20T21:00:45.087Z,74
2024-03-20T21:10:45.916Z,74
2024-03-20T21:20:47.877Z,73
2024-03-20T21:30:57.437Z,73
2024-03-20T21:41:07.071Z,75
2024-03-20T21:51:16.684Z,74
2024-03-20T22:01:26.374Z,75
2024-03-20T22:11:36.009Z,73
2024-03-20T22:21:45.652Z,71
2024-03-20T22:31:55.328Z,71
2024-03-20T22:42:04.996Z,71
2024-03-20T22:52:14.552Z,72
2024-03-20T23:02:15.084Z,72
2024-03-20T23:12:37.127Z,72
2024-03-20T23:22:36.656Z,72
2024-03-20T23:32:37.023Z,72
2024-03-20T23:42:39.552Z,72
2024-03-20T23:52:44.316Z,71
